Observations for CERVIA IT-AFB, Italy (LIPC)

LIPC 181355Z 07008KT CAVOK 17/09 Q1024  
LIPC 181355Z 07008KT CAVOK 17/09 Q1024 RMK FEW FEW200 VIS MIN 9999 WIND THR11 /////KT WIND THR29 07008KT BLU
LIPC 181255Z 05008KT CAVOK 17/08 Q1024  
LIPC 181255Z 05008KT CAVOK 17/08 Q1024 RMK FEW FEW200 VIS MIN 9999 WIND THR11 /////KT WIND THR29 05008KT BLU
LIPC 181155Z 04007KT CAVOK 17/09 Q1025  
LIPC 181155Z 04007KT CAVOK 17/09 Q1025 RMK FEW FEW200 VIS MIN 9999 WIND THR11 /////KT WIND THR29 05008KT BLU
LIPC 181055Z 04004KT CAVOK 17/09 Q1024  
LIPC 181055Z 04004KT CAVOK 17/09 Q1024 RMK SKC VIS MIN 9999 WIND THR11 /////KT WIND THR29 04005KT BLU
LIPC 180955Z 07006KT CAVOK 17/10 Q1024  
LIPC 180955Z 07006KT CAVOK 17/10 Q1024 RMK SKC VIS MIN 9999 WIND THR11 /////KT WIND THR29 08007KT BLU
LIPC 180855Z 06006KT CAVOK 16/09 Q1024  
LIPC 180855Z 06006KT CAVOK 16/09 Q1024 RMK SKC VIS MIN 9999 WIND THR11 /////KT WIND THR29 10005KT BLU
LIPC 180755Z 34003KT CAVOK 14/09 Q1024  
LIPC 180755Z 34003KT CAVOK 14/09 Q1024 RMK SKC VIS MIN 9999 WIND THR11 /////KT WIND THR29 32003KT BLU
LIPC 180655Z 27004KT CAVOK 11/08 Q1024  
LIPC 180655Z 27004KT CAVOK 11/08 Q1024 RMK SKC VIS MIN 9999 WIND THR11 /////KT WIND THR29 28004KT BLU
LIPC 180555Z 29003KT CAVOK 08/06 Q1024  
LIPC 180555Z 29003KT CAVOK 08/06 Q1024 RMK SKC VIS MIN 9999 WIND THR11 /////KT WIND THR29 27003KT BLU
LIPC 180455Z 30002KT CAVOK 05/05 Q1023  
LIPC 180455Z 30002KT CAVOK 05/05 Q1023 RMK FEW FEW090 VIS MIN 9999 WIND THR11 /////KT WIND THR29 30003KT BLU
LIPC 180355Z 27003KT CAVOK 06/05 Q1023  
LIPC 180355Z 27003KT CAVOK 06/05 Q1023 RMK SKC VIS MIN 9999 WIND THR11 /////KT WIND THR29 29003KT BLU
LIPC 180255Z 23004KT CAVOK 05/04 Q1023  
LIPC 180255Z 23004KT CAVOK 05/04 Q1023 RMK SKC VIS MIN 9999 WIND THR11 /////KT WIND THR29 24003KT BLU
LIPC 180155Z 24003KT CAVOK 06/05 Q1023  
LIPC 180155Z 24003KT CAVOK 06/05 Q1023 RMK SKC VIS MIN 9999 WIND THR11 /////KT WIND THR29 24003KT BLU
LIPC 180055Z 05004KT CAVOK 05/04 Q1022  
LIPC 180055Z 05004KT CAVOK 05/04 Q1022 RMK SKC VIS MIN 9999 WIND THR11 /////KT WIND THR29 05004KT BLU
LIPC 172355Z 04003KT CAVOK 06/05 Q1022  
LIPC 172355Z 04003KT CAVOK 06/05 Q1022 RMK SKC VIS MIN 9999 WIND THR11 /////KT WIND THR29 04004KT BLU
LIPC 172255Z 23002KT CAVOK 07/05 Q1021  
LIPC 172255Z 23002KT CAVOK 07/05 Q1021 RMK SKC VIS MIN 9999 WIND THR11 /////KT WIND THR29 24002KT BLU
LIPC 172155Z 17002KT CAVOK 08/06 Q1021  
LIPC 172155Z 17002KT CAVOK 08/06 Q1021 RMK SKC VIS MIN 9999 WIND THR11 /////KT WIND THR29 20002KT BLU
LIPC 172055Z 20001KT CAVOK 11/07 Q1021  
LIPC 172055Z 20001KT CAVOK 11/07 Q1021 RMK SKC VIS MIN 9999 WIND THR11
LIPC 171955Z 20004KT CAVOK 12/06 Q1021  
LIPC 171955Z 20004KT CAVOK 12/06 Q1021 RMK SKC VIS MIN 9999 WIND THR11 /////KT WIND THR29 21003KT BLU
LIPC 171855Z 17002KT CAVOK 14/06 Q1020  
LIPC 171855Z 17002KT CAVOK 14/06 Q1020 RMK SKC VIS MIN 9999 WIND THR11 /////KT WIND THR29 17003KT BLU
LIPC 171755Z 14004KT CAVOK 17/06 Q1020  
LIPC 171755Z 14004KT CAVOK 17/06 Q1020 RMK SKC VIS MIN 9999 WIND THR11 /////KT WIND THR29 15004KT BLU
LIPC 171655Z 11003KT CAVOK 19/05 Q1019  
LIPC 171655Z 11003KT CAVOK 19/05 Q1019 RMK SKC VIS MIN 9999 WIND THR11 /////KT WIND THR29 13003KT BLU
LIPC 171555Z 09005KT CAVOK 19/06 Q1019  
LIPC 171555Z 09005KT CAVOK 19/06 Q1019 RMK SKC VIS MIN 9999 WIND THR11 /////KT WIND THR29 10006KT BLU
LIPC 171455Z 08006KT CAVOK 19/07 Q1019  
LIPC 171455Z 08006KT CAVOK 19/07 Q1019 RMK SKC VIS MIN 9999 WIND THR11 /////KT WIND THR29 11007KT BLU
LIPC 171355Z 08007KT CAVOK 20/07 Q1020  
LIPC 171355Z 08007KT CAVOK 20/07 Q1020 RMK SKC VIS MIN 9999 WIND THR11 /////KT WIND THR29 09008KT BLU